Time;durP1;ratioP1;P1;durP2;ratioP2;P2;SDS_P1;SDS_P2;PMS_P1;PMS_P2;Temp;Humidity;BMP_temperature;BMP_pressure;BME280_temperature;BME280_humidity;BME280_pressure;Samples;Min_cycle;Max_cycle;Signal;HPM_P1;HPM_P2
2022/10/26 00:01:47;;;;;;;8.63;5.18;;;;;;;9.49;100.00;100824.28;5184347;28;20061;-78
2022/10/26 00:04:17;;;;;;;9.43;5.40;;;;;;;9.35;100.00;100821.19;5184485;28;20029;-78
2022/10/26 00:06:47;;;;;;;12.38;5.10;;;;;;;9.43;100.00;100819.22;5187150;28;20510;-78
2022/10/26 00:09:18;;;;;;;11.77;5.28;;;;;;;9.33;100.00;100828.22;5186852;28;20057;-78
2022/10/26 00:11:48;;;;;;;9.60;5.25;;;;;;;9.32;100.00;100814.28;5186605;28;20285;-78
2022/10/26 00:14:18;;;;;;;9.52;5.10;;;;;;;9.30;100.00;100823.06;5185716;28;20395;-78
2022/10/26 00:16:48;;;;;;;7.90;4.75;;;;;;;9.33;100.00;100823.81;5187281;28;20116;-78
2022/10/26 00:19:19;;;;;;;8.27;4.72;;;;;;;9.28;100.00;100832.69;5188428;28;20037;-78
2022/10/26 00:21:49;;;;;;;10.00;4.88;;;;;;;9.30;100.00;100833.50;5191711;28;20559;-78
2022/10/26 00:24:20;;;;;;;8.98;4.82;;;;;;;9.33;100.00;100831.66;5188360;28;20033;-78
2022/10/26 00:26:50;;;;;;;10.45;4.45;;;;;;;9.35;100.00;100826.41;5187074;28;20025;-78
2022/10/26 00:29:20;;;;;;;10.32;4.63;;;;;;;9.29;100.00;100826.59;5189039;28;20104;-78
2022/10/26 00:31:50;;;;;;;9.43;5.00;;;;;;;9.17;100.00;100834.72;5189676;28;20044;-78
2022/10/26 00:34:21;;;;;;;6.45;4.15;;;;;;;9.20;100.00;100839.84;5174438;28;20038;-78
2022/10/26 00:36:51;;;;;;;12.45;4.90;;;;;;;9.22;100.00;100835.44;5185346;28;20501;-77
2022/10/26 00:39:21;;;;;;;8.05;4.50;;;;;;;9.18;100.00;100844.25;5183872;28;20017;-79
2022/10/26 00:41:51;;;;;;;7.65;4.22;;;;;;;9.18;100.00;100852.06;5188082;28;20034;-78
2022/10/26 00:44:47;;;;;;;10.27;4.88;;;;;;;9.01;100.00;100836.00;5183127;28;20049;-78
2022/10/26 00:47:20;;;;;;;13.95;4.93;;;;;;;8.99;100.00;100842.13;5185644;28;20033;-78
2022/10/26 00:49:54;;;;;;;6.95;4.60;;;;;;;8.98;100.00;100841.28;5191986;28;20036;-78
2022/10/26 00:52:26;;;;;;;9.10;4.80;;;;;;;8.93;100.00;100848.34;5189055;28;20518;-79
2022/10/26 00:54:56;;;;;;;13.60;5.40;;;;;;;8.93;100.00;100853.56;5193133;28;20032;-78
2022/10/26 00:57:27;;;;;;;11.10;5.10;;;;;;;8.92;100.00;100840.59;5193240;28;20022;-78
2022/10/26 00:59:59;;;;;;;7.72;5.00;;;;;;;8.94;100.00;100839.66;5192311;28;20071;-78
2022/10/26 01:02:29;;;;;;;10.82;4.93;;;;;;;8.98;100.00;100846.50;5193567;28;20027;-78
2022/10/26 01:05:03;;;;;;;13.57;5.47;;;;;;;8.96;100.00;100832.66;5197271;28;20864;-78
2022/10/26 01:07:34;;;;;;;11.43;5.57;;;;;;;9.00;100.00;100836.91;5187569;28;20018;-79
2022/10/26 01:10:05;;;;;;;8.82;4.75;;;;;;;9.00;100.00;100829.06;5189949;28;20054;-77
2022/10/26 01:12:36;;;;;;;13.63;5.50;;;;;;;8.98;100.00;100825.66;5188535;28;20411;-78
2022/10/26 01:18:18;;;;;;;11.80;5.90;;;;;;;8.95;100.00;100830.94;6230936;23;21221;-72
2022/10/26 01:21:00;;;;;;;10.88;4.85;;;;;;;9.20;100.00;100830.28;5220791;28;20368;-73
2022/10/26 01:24:09;;;;;;;8.23;4.47;;;;;;;9.14;100.00;100835.63;5221226;28;20513;-72
2022/10/26 01:26:58;;;;;;;8.88;4.60;;;;;;;9.02;100.00;100827.28;5209530;28;20047;-72
2022/10/26 01:29:46;;;;;;;9.50;4.70;;;;;;;8.91;100.00;100826.69;5242188;28;20033;-72
2022/10/26 01:32:32;;;;;;;8.93;5.05;;;;;;;9.01;100.00;100830.78;5241922;28;20098;-72
2022/10/26 01:35:21;;;;;;;9.00;4.68;;;;;;;8.99;100.00;100816.06;5239990;28;20042;-72
2022/10/26 01:38:08;;;;;;;9.93;5.07;;;;;;;8.88;100.00;100823.31;5237541;28;20055;-72
2022/10/26 01:40:53;;;;;;;7.03;4.63;;;;;;;8.86;100.00;100814.69;5242022;28;20493;-72
2022/10/26 01:43:27;;;;;;;10.65;4.45;;;;;;;8.92;100.00;100811.91;5240895;28;20550;-72
2022/10/26 01:45:58;;;;;;;10.93;4.15;;;;;;;8.98;100.00;100814.34;5242010;28;20029;-72
2022/10/26 01:48:28;;;;;;;11.02;4.47;;;;;;;8.94;100.00;100818.81;5241414;28;20299;-72
2022/10/26 01:51:01;;;;;;;11.02;4.20;;;;;;;8.97;100.00;100820.47;5242069;28;20069;-73
2022/10/26 01:53:31;;;;;;;9.65;4.13;;;;;;;9.00;100.00;100818.66;5222504;28;20036;-72
2022/10/26 01:56:02;;;;;;;10.07;4.05;;;;;;;9.03;100.00;100815.13;5242346;28;20478;-72
2022/10/26 01:58:57;;;;;;;8.57;4.20;;;;;;;9.12;100.00;100813.13;5239594;28;20032;-72
2022/10/26 02:01:50;;;;;;;14.45;4.40;;;;;;;9.21;100.00;100818.09;5241094;28;20036;-72
2022/10/26 02:04:41;;;;;;;11.48;4.20;;;;;;;9.39;100.00;100808.03;5241236;28;20486;-72
2022/10/26 02:07:34;;;;;;;8.65;4.40;;;;;;;9.39;100.00;100808.03;5240783;28;20032;-71
2022/10/26 02:10:13;;;;;;;8.70;4.10;;;;;;;9.51;100.00;100802.47;5241039;28;20124;-72
2022/10/26 02:12:55;;;;;;;11.15;4.32;;;;;;;9.49;100.00;100806.03;5241574;28;20017;-72
2022/10/26 02:15:37;;;;;;;8.82;4.30;;;;;;;9.41;100.00;100800.16;5238883;28;20489;-72
2022/10/26 02:18:26;;;;;;;8.27;3.80;;;;;;;9.63;100.00;100807.34;5240405;28;20032;-72
2022/10/26 02:21:04;;;;;;;9.07;4.20;;;;;;;9.66;100.00;100793.38;5241226;28;20414;-72
2022/10/26 02:23:40;;;;;;;11.65;4.30;;;;;;;9.78;100.00;100796.47;5241407;28;20040;-72
2022/10/26 02:26:12;;;;;;;;;;;;;;;9.79;100.00;100789.53;5241932;28;20020;-72
2022/10/26 02:28:48;;;;;;;7.30;3.83;;;;;;;9.79;100.00;100784.31;5241623;28;19923;-72
2022/10/26 02:31:19;;;;;;;13.32;4.38;;;;;;;9.76;100.00;100784.38;5241366;28;20032;-72
2022/10/26 02:33:52;;;;;;;9.10;4.13;;;;;;;9.76;100.00;100786.97;5239349;28;20031;-72
2022/10/26 02:36:27;;;;;;;9.15;4.10;;;;;;;9.75;100.00;100783.53;5238653;28;20623;-72
2022/10/26 02:38:59;;;;;;;9.00;4.13;;;;;;;9.71;100.00;100771.47;5240461;28;20537;-72
2022/10/26 02:41:31;;;;;;;10.82;4.18;;;;;;;9.70;100.00;100771.50;5240052;28;20154;-71
2022/10/26 02:44:05;;;;;;;7.50;3.58;;;;;;;9.99;100.00;100768.91;5239400;28;20078;-71
2022/10/26 02:46:36;;;;;;;12.05;3.85;;;;;;;9.85;100.00;100765.84;5239775;28;20024;-72
2022/10/26 02:49:06;;;;;;;7.30;3.88;;;;;;;9.87;100.00;100775.34;5241036;28;20413;-72
2022/10/26 02:51:39;;;;;;;5.82;3.35;;;;;;;9.72;100.00;100774.91;5240643;28;20093;-72
2022/10/26 02:54:23;;;;;;;9.30;3.58;;;;;;;9.58;100.00;100774.44;5240034;28;20020;-72
2022/10/26 02:56:59;;;;;;;9.52;4.10;;;;;;;9.53;100.00;100774.59;5238223;28;20027;-72
2022/10/26 02:59:33;;;;;;;11.07;3.63;;;;;;;9.45;100.00;100775.72;5240752;28;20029;-72
2022/10/26 03:02:04;;;;;;;6.18;3.47;;;;;;;9.50;100.00;100772.06;5240612;28;20624;-72
2022/10/26 03:04:34;;;;;;;5.25;3.30;;;;;;;9.50;100.00;100771.22;5240338;28;20024;-72
2022/10/26 03:07:05;;;;;;;7.97;3.42;;;;;;;9.48;100.00;100765.19;5240256;28;20085;-72
2022/10/26 03:09:35;;;;;;;8.25;3.95;;;;;;;9.49;100.00;100761.69;5239420;28;20078;-72
2022/10/26 03:12:05;;;;;;;10.38;4.30;;;;;;;9.56;100.00;100760.59;5240455;28;20390;-72
2022/10/26 03:14:35;;;;;;;7.90;3.70;;;;;;;9.58;100.00;100764.00;5239919;28;20032;-72
2022/10/26 03:17:06;;;;;;;7.65;3.30;;;;;;;9.51;100.00;100754.66;5238995;28;20034;-72
2022/10/26 03:19:37;;;;;;;10.93;3.78;;;;;;;9.54;100.00;100759.78;5223100;28;20072;-72
2022/10/26 03:22:07;;;;;;;9.63;3.93;;;;;;;9.52;100.00;100761.59;5239618;28;20434;-72
2022/10/26 03:24:37;;;;;;;10.40;3.72;;;;;;;9.56;100.00;100752.78;5239913;28;20712;-72
2022/10/26 03:27:07;;;;;;;10.20;3.58;;;;;;;9.60;100.00;100757.00;5238762;28;20038;-72
2022/10/26 03:29:38;;;;;;;8.63;3.45;;;;;;;9.56;100.00;100753.66;5240321;28;20615;-72
2022/10/26 03:32:08;;;;;;;9.35;3.63;;;;;;;9.56;100.00;100747.56;5240017;28;20112;-72
2022/10/26 03:34:38;;;;;;;8.00;3.67;;;;;;;9.63;100.00;100759.53;5239835;28;20044;-73
2022/10/26 03:37:09;;;;;;;5.03;3.35;;;;;;;9.58;100.00;100758.78;5239569;28;20476;-72
2022/10/26 03:39:39;;;;;;;8.00;3.05;;;;;;;9.76;100.00;100755.66;5239659;28;20021;-72
2022/10/26 03:42:09;;;;;;;9.30;3.35;;;;;;;9.68;100.00;100753.25;5239147;28;20389;-72
2022/10/26 03:44:39;;;;;;;8.27;3.55;;;;;;;9.64;100.00;100743.81;5239388;28;20036;-72
2022/10/26 03:47:10;;;;;;;5.43;3.15;;;;;;;9.62;100.00;100750.00;5238487;28;20028;-72
2022/10/26 03:49:40;;;;;;;8.90;3.42;;;;;;;9.53;100.00;100753.72;5239020;28;20432;-72
2022/10/26 03:52:10;;;;;;;7.70;3.42;;;;;;;9.49;100.00;100744.25;5238045;28;20454;-72
2022/10/26 03:54:40;;;;;;;8.02;3.38;;;;;;;9.51;100.00;100733.78;5238981;28;20028;-72
2022/10/26 03:57:11;;;;;;;9.13;3.35;;;;;;;9.42;100.00;100739.25;5237418;28;20433;-72
2022/10/26 03:59:41;;;;;;;7.97;3.40;;;;;;;9.41;100.00;100742.75;5239121;28;20031;-72
2022/10/26 04:02:13;;;;;;;7.35;3.55;;;;;;;9.44;100.00;100737.47;5239858;28;20556;-72
2022/10/26 04:04:43;;;;;;;8.10;3.05;;;;;;;9.35;100.00;100737.72;5223848;28;20478;-72
2022/10/26 04:07:13;;;;;;;10.77;5.00;;;;;;;9.37;100.00;100738.53;5238863;28;20070;-72
2022/10/26 04:09:43;;;;;;;13.27;5.90;;;;;;;9.22;100.00;100738.97;5239620;28;20032;-72
2022/10/26 04:12:13;;;;;;;12.48;4.72;;;;;;;9.14;100.00;100744.38;5238853;28;20056;-71
2022/10/26 04:14:44;;;;;;;11.45;4.90;;;;;;;9.14;100.00;100733.13;5239517;28;20497;-72
2022/10/26 04:17:14;;;;;;;8.75;4.72;;;;;;;9.13;100.00;100733.16;5238778;28;20056;-72
2022/10/26 04:19:44;;;;;;;6.32;2.95;;;;;;;9.13;100.00;100730.53;5238483;28;20036;-72
2022/10/26 04:22:15;;;;;;;9.05;3.47;;;;;;;9.06;100.00;100732.44;5238726;28;20060;-72
2022/10/26 04:24:45;;;;;;;8.23;3.22;;;;;;;9.05;100.00;100727.31;5239570;28;20028;-72
2022/10/26 04:27:15;;;;;;;10.35;3.22;;;;;;;9.11;100.00;100729.72;5238830;28;20032;-72
2022/10/26 04:29:45;;;;;;;9.13;3.17;;;;;;;9.06;100.00;100732.44;5242386;28;20595;-72
2022/10/26 04:32:16;;;;;;;7.90;3.30;;;;;;;9.12;100.00;100721.88;5243282;28;20415;-72
2022/10/26 04:34:46;;;;;;;9.80;4.95;;;;;;;9.13;100.00;100727.94;5243669;28;20030;-72
2022/10/26 04:37:16;;;;;;;10.95;4.97;;;;;;;9.11;100.00;100730.59;5241774;28;20029;-72
2022/10/26 04:39:46;;;;;;;15.90;5.22;;;;;;;9.05;100.00;100733.34;5243105;28;20490;-72
2022/10/26 04:42:17;;;;;;;9.00;5.22;;;;;;;9.05;100.00;100720.31;5243159;28;20020;-72
2022/10/26 04:44:47;;;;;;;9.10;4.78;;;;;;;9.00;100.00;100724.81;5242736;28;20040;-72
2022/10/26 04:47:17;;;;;;;12.32;4.82;;;;;;;8.98;100.00;100726.59;5242995;28;20389;-72
2022/10/26 04:49:47;;;;;;;10.15;3.50;;;;;;;8.96;100.00;100732.75;5243337;28;20032;-72
2022/10/26 04:52:18;;;;;;;7.70;3.83;;;;;;;8.91;100.00;100724.19;5242616;28;20087;-72
2022/10/26 04:54:48;;;;;;;10.25;3.03;;;;;;;8.90;100.00;100728.53;5242713;28;20036;-72
2022/10/26 04:57:18;;;;;;;5.80;3.70;;;;;;;8.92;100.00;100721.53;5241405;28;20446;-72
2022/10/26 04:59:48;;;;;;;7.72;3.08;;;;;;;8.93;100.00;100728.44;5241671;28;20028;-72
2022/10/26 05:02:19;;;;;;;7.57;2.83;;;;;;;8.87;100.00;100723.41;5208202;28;20115;-72
2022/10/26 05:04:50;;;;;;;6.63;2.65;;;;;;;8.92;100.00;100721.53;5242730;28;20508;-72
2022/10/26 05:07:20;;;;;;;7.40;2.80;;;;;;;8.87;100.00;100718.19;5241863;28;20025;-72
2022/10/26 05:09:50;;;;;;;7.78;2.75;;;;;;;8.90;100.00;100725.94;5242175;28;20024;-72
2022/10/26 05:12:21;;;;;;;9.40;3.00;;;;;;;8.91;100.00;100719.81;5241297;28;20068;-72
2022/10/26 05:14:51;;;;;;;8.05;2.92;;;;;;;8.96;100.00;100717.97;5220102;28;20039;-72
2022/10/26 05:17:21;;;;;;;7.07;3.15;;;;;;;8.95;100.00;100724.09;5221405;28;20016;-72
2022/10/26 05:19:54;;;;;;;8.17;3.17;;;;;;;9.00;100.00;100717.00;5242674;28;20024;-72
2022/10/26 05:22:24;;;;;;;8.43;3.28;;;;;;;8.99;100.00;100723.09;5242489;28;20278;-72
2022/10/26 05:24:55;;;;;;;9.30;3.00;;;;;;;8.87;100.00;100713.00;5242128;28;20028;-72
2022/10/26 05:27:25;;;;;;;9.88;3.30;;;;;;;8.92;100.00;100715.47;5241403;28;20028;-72
2022/10/26 05:29:55;;;;;;;10.40;3.17;;;;;;;8.85;100.00;100714.78;5223546;28;20028;-72
2022/10/26 05:32:25;;;;;;;5.38;2.97;;;;;;;8.74;100.00;100715.97;5242099;28;20027;-72
2022/10/26 05:34:56;;;;;;;10.40;3.45;;;;;;;8.68;100.00;100706.56;5241940;28;20024;-72
2022/10/26 05:37:29;;;;;;;5.60;3.45;;;;;;;8.93;100.00;100715.44;5241988;28;20020;-72
2022/10/26 05:39:59;;;;;;;8.98;3.80;;;;;;;8.90;100.00;100712.06;5240684;28;20020;-72
2022/10/26 05:42:29;;;;;;;9.77;4.00;;;;;;;8.65;100.00;100705.75;5239626;28;20033;-72
2022/10/26 05:45:00;;;;;;;12.32;4.18;;;;;;;8.76;100.00;100708.97;5241788;28;20028;-72
2022/10/26 05:47:30;;;;;;;10.68;4.15;;;;;;;8.85;100.00;100709.56;5223318;28;20085;-72
2022/10/26 05:50:00;;;;;;;8.70;4.28;;;;;;;8.93;100.00;100712.81;5216732;28;20028;-72
2022/10/26 05:52:40;;;;;;;7.45;3.63;;;;;;;8.98;100.00;100716.19;5241557;28;20036;-72
2022/10/26 05:55:13;;;;;;;9.43;4.47;;;;;;;8.86;100.00;100713.88;5240107;28;20329;-72
2022/10/26 05:57:43;;;;;;;9.27;4.28;;;;;;;9.06;100.00;100714.19;5241051;28;20107;-72
2022/10/26 06:00:17;;;;;;;10.32;4.50;;;;;;;9.06;100.00;100723.78;5240177;28;20295;-72
2022/10/26 06:03:12;;;;;;;11.73;4.32;;;;;;;8.98;100.00;100725.72;5240804;28;20061;-72
2022/10/26 06:05:56;;;;;;;8.80;3.92;;;;;;;9.12;100.00;100719.28;5240872;28;20641;-72
2022/10/26 06:08:28;;;;;;;9.38;4.32;;;;;;;9.10;100.00;100726.25;5239917;28;20051;-72
2022/10/26 06:10:58;;;;;;;10.32;3.95;;;;;;;9.20;100.00;100727.72;5224380;28;20789;-72
2022/10/26 06:13:29;;;;;;;9.38;5.22;;;;;;;9.09;100.00;100721.94;5240830;28;20040;-72
2022/10/26 06:16:22;;;;;;;9.15;4.50;;;;;;;9.23;100.00;100732.84;5241818;28;20926;-73
2022/10/26 06:19:20;;;;;;;9.07;4.13;;;;;;;9.23;100.00;100725.91;5240788;28;20193;-72
2022/10/26 06:22:11;;;;;;;7.15;4.30;;;;;;;9.25;100.00;100723.22;5239101;28;20020;-72
2022/10/26 06:25:00;;;;;;;7.28;4.00;;;;;;;9.28;100.00;100726.63;5241182;28;20021;-72
2022/10/26 06:27:47;;;;;;;7.93;4.10;;;;;;;9.44;100.00;100727.03;5240770;28;20375;-72
2022/10/26 06:30:19;;;;;;;12.70;4.13;;;;;;;9.49;100.00;100731.22;5241107;28;20093;-72
2022/10/26 06:32:54;;;;;;;7.93;4.00;;;;;;;9.53;100.00;100724.16;5238458;28;20482;-72
2022/10/26 06:35:58;;;;;;;10.52;4.13;;;;;;;9.61;100.00;100737.81;5241085;28;20453;-70
2022/10/26 06:38:31;;;;;;;11.38;4.35;;;;;;;9.71;100.00;100728.84;5239598;28;20162;-70
2022/10/26 06:41:02;;;;;;;7.20;3.70;;;;;;;9.77;100.00;100731.25;5240705;28;20024;-70
2022/10/26 06:43:34;;;;;;;12.25;3.88;;;;;;;9.76;100.00;100735.66;5240084;28;20024;-70
2022/10/26 06:46:26;;;;;;;6.53;3.47;;;;;;;9.77;100.00;100733.88;5222253;28;20032;-69
2022/10/26 06:49:08;;;;;;;7.38;3.58;;;;;;;9.81;100.00;100728.53;5239262;28;20027;-70
2022/10/26 06:51:57;;;;;;;9.02;3.60;;;;;;;9.81;100.00;100732.91;5240618;28;20025;-70
2022/10/26 06:54:46;;;;;;;17.75;3.90;;;;;;;9.96;100.00;100730.66;5240964;28;20030;-70
2022/10/26 06:57:21;;;;;;;8.50;3.80;;;;;;;10.00;100.00;100740.13;5239762;28;20056;-70
2022/10/26 07:00:01;;;;;;;5.68;3.13;;;;;;;10.08;100.00;100735.56;5237185;28;20024;-70
2022/10/26 07:02:31;;;;;;;6.25;3.20;;;;;;;10.25;100.00;100745.47;5239967;28;20033;-70
2022/10/26 07:05:02;;;;;;;7.70;3.00;;;;;;;10.20;100.00;100739.53;5239380;28;20520;-70
2022/10/26 07:07:38;;;;;;;5.80;3.20;;;;;;;10.36;100.00;100746.00;5221812;28;20095;-72
2022/10/26 07:10:10;;;;;;;6.50;3.30;;;;;;;10.43;100.00;100747.50;5240343;28;20036;-72
2022/10/26 07:12:40;;;;;;;5.55;2.60;;;;;;;10.80;100.00;100753.22;5240251;28;20557;-70
2022/10/26 07:15:10;;;;;;;10.05;2.70;;;;;;;10.78;100.00;100758.50;5242093;28;20123;-69
2022/10/26 07:20:23;;;;;;;5.15;2.80;;;;;;;11.36;100.00;100753.81;5210216;28;20138;-77
2022/10/26 07:22:55;;;;;;;5.72;2.20;;;;;;;11.55;100.00;100751.38;5212281;28;20075;-76
2022/10/26 07:25:25;;;;;;;6.03;2.25;;;;;;;11.66;100.00;100752.75;5218393;28;20053;-77
2022/10/26 07:27:59;;;;;;;6.70;2.13;;;;;;;11.67;100.00;100751.84;5214627;28;20060;-77
2022/10/26 07:30:29;;;;;;;5.13;2.20;;;;;;;11.80;100.00;100755.69;5219138;28;20037;-77
2022/10/26 07:33:02;;;;;;;6.20;2.20;;;;;;;11.96;100.00;100750.72;5197549;28;20105;-76
2022/10/26 07:35:33;;;;;;;5.43;2.10;;;;;;;12.16;100.00;100754.28;5219333;28;20036;-77
2022/10/26 07:38:04;;;;;;;5.03;1.90;;;;;;;12.64;100.00;100751.47;5219593;28;20104;-77
2022/10/26 07:40:36;;;;;;;6.93;1.80;;;;;;;13.57;100.00;100743.03;5218049;28;20115;-77
2022/10/26 07:43:06;;;;;;;3.10;1.55;;;;;;;15.27;100.00;100744.25;5200990;28;20038;-77
2022/10/26 07:45:39;;;;;;;7.65;1.65;;;;;;;16.33;98.04;100737.53;5218418;28;20075;-78
2022/10/26 07:48:09;;;;;;;3.90;1.30;;;;;;;16.47;91.92;100749.06;5218334;28;20037;-77
2022/10/26 07:50:39;;;;;;;5.93;1.15;;;;;;;17.43;89.04;100743.31;5194906;28;20528;-78
2022/10/26 07:53:10;;;;;;;4.47;1.40;;;;;;;17.56;88.63;100745.13;5217836;28;20029;-75
2022/10/26 07:55:40;;;;;;;5.05;1.17;;;;;;;18.47;85.25;100750.78;5219537;28;20881;-77
2022/10/26 07:58:10;;;;;;;5.07;1.00;;;;;;;18.48;84.20;100741.91;5218579;28;20036;-78
2022/10/26 08:00:40;;;;;;;5.03;1.40;;;;;;;18.07;86.03;100747.19;5219781;28;20280;-78
2022/10/26 08:03:11;;;;;;;7.13;1.33;;;;;;;17.58;85.01;100748.53;5220968;28;20051;-77
2022/10/26 08:05:41;;;;;;;4.40;1.40;;;;;;;18.04;85.70;100746.50;5225950;28;20267;-78
2022/10/26 08:08:12;;;;;;;3.50;1.10;;;;;;;18.12;86.17;100754.78;5225607;28;20524;-77
2022/10/26 08:10:43;;;;;;;5.35;1.30;;;;;;;19.17;83.57;100754.84;5225836;28;20400;-78
2022/10/26 08:13:14;;;;;;;5.57;1.40;;;;;;;19.24;82.96;100749.97;5225385;28;20450;-77
2022/10/26 08:15:44;;;;;;;3.80;1.20;;;;;;;19.36;81.21;100747.31;5225847;28;20120;-77
2022/10/26 08:18:14;;;;;;;6.33;1.23;;;;;;;18.63;81.95;100751.47;5224121;28;20025;-77
2022/10/26 08:20:45;;;;;;;3.45;1.05;;;;;;;18.81;81.92;100757.28;5226055;28;20285;-77
2022/10/26 08:23:15;;;;;;;2.27;1.10;;;;;;;20.02;79.82;100755.91;5224153;28;20056;-78
2022/10/26 08:25:45;;;;;;;3.45;1.08;;;;;;;19.63;79.78;100763.13;5225033;28;20271;-78
2022/10/26 08:28:16;;;;;;;4.30;1.30;;;;;;;19.55;80.81;100761.00;5224418;28;20029;-78
2022/10/26 08:30:46;;;;;;;3.43;1.30;;;;;;;19.34;81.63;100761.63;5226122;28;20021;-77
2022/10/26 08:33:16;;;;;;;4.45;1.45;;;;;;;19.52;80.15;100755.06;5225603;28;20370;-78
2022/10/26 08:35:47;;;;;;;5.93;1.23;;;;;;;19.75;80.95;100747.19;5226127;28;20098;-77
2022/10/26 08:38:17;;;;;;;7.95;1.50;;;;;;;19.09;81.65;100751.81;5207387;28;20040;-77
2022/10/26 08:40:47;;;;;;;5.37;1.30;;;;;;;19.30;81.79;100746.91;5198878;28;20032;-78
2022/10/26 08:43:49;;;;;;;5.93;1.45;;;;;;;18.12;87.59;100755.66;5225626;28;20370;-78
2022/10/26 08:46:26;;;;;;;2.70;1.10;;;;;;;17.14;92.05;100757.41;5222102;28;20048;-77
2022/10/26 08:49:19;;;;;;;3.13;1.30;;;;;;;16.51;98.07;100755.88;5223628;28;20471;-78
2022/10/26 08:51:53;;;;;;;5.38;1.23;;;;;;;16.79;96.66;100751.53;5226199;28;20041;-77
2022/10/26 08:54:34;;;;;;;4.88;1.60;;;;;;;16.56;99.09;100759.09;5224973;28;20025;-77
2022/10/26 08:57:15;;;;;;;4.85;1.30;;;;;;;16.36;100.00;100767.28;5202298;28;20040;-77
2022/10/26 08:59:56;;;;;;;3.92;1.35;;;;;;;16.20;100.00;100766.41;5198963;28;20445;-77
2022/10/26 09:02:27;;;;;;;3.90;1.42;;;;;;;16.11;100.00;100768.69;5225022;28;20056;-77
2022/10/26 09:04:59;;;;;;;5.53;1.75;;;;;;;15.70;100.00;100762.19;5224767;28;20094;-77
2022/10/26 09:07:56;;;;;;;5.55;1.45;;;;;;;15.35;100.00;100773.72;5196537;28;20029;-78
2022/10/26 09:10:39;;;;;;;6.20;1.40;;;;;;;15.10;100.00;100771.47;5223137;28;20032;-78
2022/10/26 09:13:27;;;;;;;5.78;1.50;;;;;;;15.15;100.00;100772.06;5225040;28;20032;-75
2022/10/26 09:16:16;;;;;;;5.80;1.70;;;;;;;15.21;100.00;100771.75;5219980;28;20694;-77
2022/10/26 09:18:55;;;;;;;6.20;1.83;;;;;;;15.23;100.00;100767.28;5219780;28;20028;-77
2022/10/26 09:21:31;;;;;;;6.65;1.70;;;;;;;15.30;100.00;100770.44;5221264;28;20020;-77
2022/10/26 09:24:14;;;;;;;4.43;1.40;;;;;;;15.39;100.00;100765.56;5220983;28;20494;-77
2022/10/26 09:26:52;;;;;;;4.55;1.48;;;;;;;15.26;100.00;100764.47;5220720;28;20029;-78
2022/10/26 09:29:31;;;;;;;5.82;1.80;;;;;;;15.20;100.00;100771.84;5221453;28;20035;-77
2022/10/26 09:32:02;;;;;;;6.43;1.65;;;;;;;15.25;100.00;100760.16;5220241;28;20383;-77
2022/10/26 09:34:41;;;;;;;6.38;1.65;;;;;;;15.15;100.00;100761.53;5218405;28;20037;-77
2022/10/26 09:37:17;;;;;;;3.72;1.73;;;;;;;15.39;100.00;100760.28;5221201;28;20703;-77
2022/10/26 09:39:59;;;;;;;10.07;1.90;;;;;;;15.39;100.00;100754.19;5220868;28;20387;-77
2022/10/26 09:42:39;;;;;;;15.77;2.00;;;;;;;15.15;100.00;100753.63;5219235;28;20128;-78
2022/10/26 09:45:19;;;;;;;6.63;1.92;;;;;;;15.27;100.00;100760.91;5221438;28;20255;-77
2022/10/26 09:47:55;;;;;;;7.10;1.50;;;;;;;15.18;100.00;100761.38;5220891;28;20036;-77
2022/10/26 09:50:33;;;;;;;4.28;1.45;;;;;;;15.25;100.00;100757.50;5221003;28;20024;-77
2022/10/26 09:53:04;;;;;;;6.50;2.00;;;;;;;15.18;100.00;100756.09;5218208;28;20077;-77
2022/10/26 09:55:40;;;;;;;6.82;1.85;;;;;;;15.13;100.00;100763.41;5220186;28;20029;-77
2022/10/26 09:58:19;;;;;;;7.15;2.17;;;;;;;15.16;100.00;100763.25;5219666;28;20090;-75
2022/10/26 10:00:51;;;;;;;3.55;1.50;;;;;;;15.16;100.00;100765.88;5193882;28;20016;-77
2022/10/26 10:03:39;;;;;;;10.35;2.40;;;;;;;15.33;100.00;100765.88;5219742;28;20095;-77
2022/10/26 10:06:18;;;;;;;5.95;2.13;;;;;;;15.40;100.00;100766.44;5220064;28;20047;-77
2022/10/26 10:09:13;;;;;;;4.15;1.80;;;;;;;15.33;100.00;100760.63;5219630;28;20048;-78
2022/10/26 10:11:54;;;;;;;4.53;1.60;;;;;;;15.37;100.00;100766.59;5219514;28;20039;-78
2022/10/26 10:14:27;;;;;;;5.75;1.70;;;;;;;15.63;100.00;100764.28;5218077;28;20025;-78
2022/10/26 10:17:01;;;;;;;7.15;1.70;;;;;;;15.67;100.00;100768.47;5219138;28;20500;-77
2022/10/26 10:19:34;;;;;;;4.22;1.60;;;;;;;15.84;100.00;100771.03;5219433;28;20035;-77
2022/10/26 10:22:11;;;;;;;3.60;1.45;;;;;;;16.16;100.00;100774.56;5220068;28;20047;-78
2022/10/26 10:24:53;;;;;;;4.57;1.50;;;;;;;16.38;100.00;100775.13;5219393;28;20311;-78
2022/10/26 10:27:24;;;;;;;6.18;1.92;;;;;;;16.45;100.00;100769.41;5218044;28;20035;-77
2022/10/26 10:29:56;;;;;;;7.47;1.60;;;;;;;16.41;100.00;100770.50;5202284;28;20037;-77
2022/10/26 10:32:31;;;;;;;7.32;1.75;;;;;;;16.56;100.00;100772.28;5219965;28;20029;-77
2022/10/26 10:35:22;;;;;;;5.90;1.85;;;;;;;16.54;100.00;100782.06;5202401;28;20602;-77
2022/10/26 10:37:52;;;;;;;5.00;1.90;;;;;;;16.78;100.00;100780.69;5220074;28;20765;-78
2022/10/26 10:40:25;;;;;;;6.72;1.60;;;;;;;16.75;100.00;100774.72;5219614;28;20115;-77
2022/10/26 10:43:25;;;;;;;6.13;1.88;;;;;;;16.79;100.00;100770.03;5218265;28;20029;-78
2022/10/26 10:45:57;;;;;;;6.93;1.70;;;;;;;16.95;100.00;100770.84;5202180;28;20055;-77
2022/10/26 10:48:28;;;;;;;5.28;1.67;;;;;;;17.06;100.00;100759.63;5219023;28;20173;-77
2022/10/26 10:51:02;;;;;;;4.78;1.48;;;;;;;17.01;100.00;100775.75;5219854;28;20039;-77
2022/10/26 10:53:54;;;;;;;6.50;1.70;;;;;;;16.91;100.00;100765.81;5219413;28;20037;-77
2022/10/26 10:56:32;;;;;;;6.43;1.48;;;;;;;17.09;100.00;100770.03;5218113;28;20025;-77
2022/10/26 10:59:33;;;;;;;4.35;1.42;;;;;;;17.07;100.00;100778.06;5218809;28;20033;-77
2022/10/26 11:02:22;;;;;;;8.95;1.60;;;;;;;17.13;100.00;100776.84;5219159;28;20025;-77
2022/10/26 11:05:11;;;;;;;4.47;1.67;;;;;;;17.14;100.00;100773.25;5216403;28;20079;-77
2022/10/26 11:07:53;;;;;;;3.92;1.25;;;;;;;17.02;100.00;100773.97;5218171;28;20120;-78
2022/10/26 11:10:28;;;;;;;5.40;1.40;;;;;;;17.00;100.00;100770.56;5198381;28;20040;-77
2022/10/26 11:13:04;;;;;;;5.97;1.63;;;;;;;16.82;100.00;100769.00;5218163;28;20029;-77
2022/10/26 11:15:38;;;;;;;6.85;1.30;;;;;;;16.76;100.00;100765.88;5218307;28;20312;-77
2022/10/26 11:18:37;;;;;;;6.03;1.67;;;;;;;16.70;100.00;100771.50;5218628;28;20044;-77
2022/10/26 11:21:24;;;;;;;8.27;1.60;;;;;;;16.76;100.00;100771.16;5211553;28;20127;-77
2022/10/26 11:24:09;;;;;;;7.20;1.80;;;;;;;16.90;100.00;100769.41;5218348;28;20102;-78
2022/10/26 11:26:46;;;;;;;5.80;1.40;;;;;;;16.90;100.00;100780.81;5217111;28;20024;-77
2022/10/26 11:29:39;;;;;;;4.50;1.50;;;;;;;16.99;100.00;100768.88;5219259;28;20276;-77
2022/10/26 11:32:23;;;;;;;3.95;1.60;;;;;;;17.19;100.00;100771.19;5218507;28;20047;-75
2022/10/26 11:35:04;;;;;;;3.90;1.45;;;;;;;17.22;100.00;100784.22;5217451;28;20021;-77
2022/10/26 11:37:53;;;;;;;8.07;1.90;;;;;;;17.34;100.00;100780.88;5218050;28;20029;-77
2022/10/26 11:40:32;;;;;;;5.82;1.27;;;;;;;17.26;100.00;100778.66;5216528;28;20035;-78
2022/10/26 11:43:23;;;;;;;6.85;1.85;;;;;;;17.19;100.00;100772.06;5218767;28;20036;-78
2022/10/26 11:46:04;;;;;;;6.22;1.60;;;;;;;17.21;100.00;100775.44;5216702;28;20025;-77
2022/10/26 11:48:59;;;;;;;7.97;2.13;;;;;;;17.20;100.00;100780.81;5219156;28;20429;-77
2022/10/26 11:51:55;;;;;;;6.13;2.03;;;;;;;17.12;100.00;100785.72;5218018;28;20063;-77
2022/10/26 11:54:34;;;;;;;6.53;1.95;;;;;;;17.30;100.00;100774.88;5218280;28;20079;-77
2022/10/26 11:57:05;;;;;;;4.50;1.60;;;;;;;17.29;100.00;100782.91;5199717;28;20211;-78
2022/10/26 11:59:41;;;;;;;5.57;1.48;;;;;;;17.37;100.00;100770.13;5217182;28;20629;-77
2022/10/26 12:02:36;;;;;;;6.82;1.60;;;;;;;17.34;100.00;100780.88;5218581;28;20048;-77
2022/10/26 12:05:20;;;;;;;3.92;1.30;;;;;;;17.31;100.00;100781.03;5193861;28;20025;-77
2022/10/26 12:08:02;;;;;;;5.05;1.60;;;;;;;17.30;100.00;100784.63;5218419;28;20311;-77